sensor_id;sensor_type;location;lat;lon;timestamp;P1;durP1;ratioP1;P2;durP2;ratioP2
6834;SDS011;3455;42.150;24.734;2022-11-15T00:01:50;43.70;;;29.97;;
6834;SDS011;3455;42.150;24.734;2022-11-15T00:04:16;49.83;;;31.17;;
6834;SDS011;3455;42.150;24.734;2022-11-15T00:06:43;49.43;;;30.30;;
6834;SDS011;3455;42.150;24.734;2022-11-15T00:09:11;49.33;;;29.43;;
6834;SDS011;3455;42.150;24.734;2022-11-15T00:11:38;40.97;;;28.80;;
6834;SDS011;3455;42.150;24.734;2022-11-15T00:14:05;47.57;;;29.83;;
6834;SDS011;3455;42.150;24.734;2022-11-15T00:16:31;43.57;;;28.97;;
6834;SDS011;3455;42.150;24.734;2022-11-15T00:18:58;43.17;;;29.57;;
6834;SDS011;3455;42.150;24.734;2022-11-15T00:21:25;42.07;;;27.40;;
6834;SDS011;3455;42.150;24.734;2022-11-15T00:23:52;46.53;;;30.37;;
6834;SDS011;3455;42.150;24.734;2022-11-15T00:26:20;44.10;;;28.80;;
6834;SDS011;3455;42.150;24.734;2022-11-15T00:28:47;48.37;;;29.80;;
6834;SDS011;3455;42.150;24.734;2022-11-15T00:31:14;44.23;;;28.00;;
6834;SDS011;3455;42.150;24.734;2022-11-15T00:33:42;43.27;;;28.67;;
6834;SDS011;3455;42.150;24.734;2022-11-15T00:39:31;47.07;;;28.07;;
6834;SDS011;3455;42.150;24.734;2022-11-15T00:45:21;43.63;;;28.03;;
6834;SDS011;3455;42.150;24.734;2022-11-15T00:51:09;37.93;;;27.17;;
6834;SDS011;3455;42.150;24.734;2022-11-15T00:53:36;42.83;;;27.60;;
6834;SDS011;3455;42.150;24.734;2022-11-15T00:59:24;43.53;;;27.87;;
6834;SDS011;3455;42.150;24.734;2022-11-15T01:01:52;36.43;;;26.07;;
6834;SDS011;3455;42.150;24.734;2022-11-15T01:07:41;36.70;;;25.93;;
6834;SDS011;3455;42.150;24.734;2022-11-15T01:13:29;38.43;;;26.70;;
6834;SDS011;3455;42.150;24.734;2022-11-15T01:15:57;41.03;;;26.63;;
6834;SDS011;3455;42.150;24.734;2022-11-15T01:18:25;39.70;;;27.13;;
6834;SDS011;3455;42.150;24.734;2022-11-15T01:20:52;40.57;;;26.83;;
6834;SDS011;3455;42.150;24.734;2022-11-15T01:23:19;38.17;;;25.27;;
6834;SDS011;3455;42.150;24.734;2022-11-15T01:25:45;36.87;;;26.57;;
6834;SDS011;3455;42.150;24.734;2022-11-15T01:28:12;38.87;;;26.30;;
6834;SDS011;3455;42.150;24.734;2022-11-15T01:30:39;35.13;;;26.17;;
6834;SDS011;3455;42.150;24.734;2022-11-15T01:33:06;35.40;;;25.53;;
6834;SDS011;3455;42.150;24.734;2022-11-15T01:35:34;33.07;;;24.57;;
6834;SDS011;3455;42.150;24.734;2022-11-15T01:38:04;40.80;;;25.67;;
6834;SDS011;3455;42.150;24.734;2022-11-15T01:40:31;36.57;;;24.20;;
6834;SDS011;3455;42.150;24.734;2022-11-15T01:42:58;40.50;;;23.53;;
6834;SDS011;3455;42.150;24.734;2022-11-15T01:45:24;39.00;;;25.50;;
6834;SDS011;3455;42.150;24.734;2022-11-15T01:47:52;32.90;;;23.63;;
6834;SDS011;3455;42.150;24.734;2022-11-15T01:50:22;34.53;;;23.47;;
6834;SDS011;3455;42.150;24.734;2022-11-15T01:52:53;35.67;;;24.80;;
6834;SDS011;3455;42.150;24.734;2022-11-15T01:55:21;36.13;;;24.63;;
6834;SDS011;3455;42.150;24.734;2022-11-15T01:57:52;37.90;;;24.40;;
6834;SDS011;3455;42.150;24.734;2022-11-15T02:00:21;36.37;;;25.80;;
6834;SDS011;3455;42.150;24.734;2022-11-15T02:06:09;33.00;;;23.53;;
6834;SDS011;3455;42.150;24.734;2022-11-15T02:08:38;33.83;;;24.47;;
6834;SDS011;3455;42.150;24.734;2022-11-15T02:11:06;34.17;;;24.20;;
6834;SDS011;3455;42.150;24.734;2022-11-15T02:13:34;33.23;;;24.03;;
6834;SDS011;3455;42.150;24.734;2022-11-15T02:16:03;35.27;;;23.73;;
6834;SDS011;3455;42.150;24.734;2022-11-15T02:18:41;32.60;;;24.50;;
6834;SDS011;3455;42.150;24.734;2022-11-15T02:21:15;37.20;;;23.80;;
6834;SDS011;3455;42.150;24.734;2022-11-15T02:27:19;34.97;;;23.50;;
6834;SDS011;3455;42.150;24.734;2022-11-15T02:30:19;36.60;;;23.60;;
6834;SDS011;3455;42.150;24.734;2022-11-15T02:32:48;32.90;;;23.60;;
6834;SDS011;3455;42.150;24.734;2022-11-15T02:35:22;32.43;;;22.70;;
6834;SDS011;3455;42.150;24.734;2022-11-15T02:41:19;34.53;;;24.13;;
6834;SDS011;3455;42.150;24.734;2022-11-15T02:47:13;40.57;;;22.67;;
6834;SDS011;3455;42.150;24.734;2022-11-15T02:53:04;38.00;;;24.57;;
6834;SDS011;3455;42.150;24.734;2022-11-15T02:59:07;34.17;;;23.80;;
6834;SDS011;3455;42.150;24.734;2022-11-15T03:01:50;38.90;;;24.70;;
6834;SDS011;3455;42.150;24.734;2022-11-15T03:04:30;32.63;;;22.67;;
6834;SDS011;3455;42.150;24.734;2022-11-15T03:07:06;33.57;;;23.40;;
6834;SDS011;3455;42.150;24.734;2022-11-15T03:09:38;32.00;;;23.60;;
6834;SDS011;3455;42.150;24.734;2022-11-15T03:12:10;37.13;;;23.50;;
6834;SDS011;3455;42.150;24.734;2022-11-15T03:14:42;32.67;;;23.13;;
6834;SDS011;3455;42.150;24.734;2022-11-15T03:17:18;37.73;;;24.90;;
6834;SDS011;3455;42.150;24.734;2022-11-15T03:19:54;34.23;;;23.10;;
6834;SDS011;3455;42.150;24.734;2022-11-15T03:22:24;35.37;;;24.07;;
6834;SDS011;3455;42.150;24.734;2022-11-15T03:24:54;35.47;;;25.20;;
6834;SDS011;3455;42.150;24.734;2022-11-15T03:27:26;40.23;;;24.87;;
6834;SDS011;3455;42.150;24.734;2022-11-15T03:29:58;35.77;;;23.80;;
6834;SDS011;3455;42.150;24.734;2022-11-15T03:32:28;34.37;;;23.43;;
6834;SDS011;3455;42.150;24.734;2022-11-15T03:35:00;31.90;;;23.17;;
6834;SDS011;3455;42.150;24.734;2022-11-15T03:40:53;36.60;;;24.60;;
6834;SDS011;3455;42.150;24.734;2022-11-15T03:46:46;32.73;;;22.47;;
6834;SDS011;3455;42.150;24.734;2022-11-15T03:52:45;35.10;;;23.47;;
6834;SDS011;3455;42.150;24.734;2022-11-15T03:58:35;34.83;;;23.07;;
6834;SDS011;3455;42.150;24.734;2022-11-15T04:04:23;30.13;;;23.20;;
6834;SDS011;3455;42.150;24.734;2022-11-15T04:06:50;33.60;;;22.93;;
6834;SDS011;3455;42.150;24.734;2022-11-15T04:09:18;35.53;;;24.13;;
6834;SDS011;3455;42.150;24.734;2022-11-15T04:11:45;30.50;;;22.23;;
6834;SDS011;3455;42.150;24.734;2022-11-15T04:14:12;29.87;;;21.73;;
6834;SDS011;3455;42.150;24.734;2022-11-15T04:16:38;35.50;;;23.03;;
6834;SDS011;3455;42.150;24.734;2022-11-15T04:19:05;32.20;;;23.00;;
6834;SDS011;3455;42.150;24.734;2022-11-15T04:21:49;33.87;;;23.37;;
6834;SDS011;3455;42.150;24.734;2022-11-15T04:27:56;32.90;;;22.63;;
6834;SDS011;3455;42.150;24.734;2022-11-15T04:30:23;30.33;;;22.47;;
6834;SDS011;3455;42.150;24.734;2022-11-15T04:32:50;35.20;;;22.30;;
6834;SDS011;3455;42.150;24.734;2022-11-15T04:38:38;30.80;;;21.60;;
6834;SDS011;3455;42.150;24.734;2022-11-15T04:44:27;33.27;;;21.17;;
6834;SDS011;3455;42.150;24.734;2022-11-15T04:46:54;31.30;;;21.43;;
6834;SDS011;3455;42.150;24.734;2022-11-15T04:52:48;26.90;;;21.43;;
6834;SDS011;3455;42.150;24.734;2022-11-15T04:55:17;31.07;;;21.30;;
6834;SDS011;3455;42.150;24.734;2022-11-15T04:57:44;32.07;;;20.80;;
6834;SDS011;3455;42.150;24.734;2022-11-15T05:00:13;27.20;;;20.17;;
6834;SDS011;3455;42.150;24.734;2022-11-15T05:06:02;31.03;;;20.37;;
6834;SDS011;3455;42.150;24.734;2022-11-15T05:11:51;29.93;;;21.53;;
6834;SDS011;3455;42.150;24.734;2022-11-15T05:17:40;30.63;;;21.53;;
6834;SDS011;3455;42.150;24.734;2022-11-15T05:20:07;32.60;;;22.57;;
6834;SDS011;3455;42.150;24.734;2022-11-15T05:22:35;27.93;;;21.03;;
6834;SDS011;3455;42.150;24.734;2022-11-15T05:25:01;28.63;;;22.17;;
6834;SDS011;3455;42.150;24.734;2022-11-15T05:27:29;32.77;;;21.83;;
6834;SDS011;3455;42.150;24.734;2022-11-15T05:29:55;29.27;;;19.67;;
6834;SDS011;3455;42.150;24.734;2022-11-15T05:32:22;29.73;;;20.80;;
6834;SDS011;3455;42.150;24.734;2022-11-15T05:38:12;32.07;;;21.50;;
6834;SDS011;3455;42.150;24.734;2022-11-15T05:40:39;27.50;;;19.73;;
6834;SDS011;3455;42.150;24.734;2022-11-15T05:43:06;31.43;;;20.90;;
6834;SDS011;3455;42.150;24.734;2022-11-15T05:45:33;31.17;;;21.00;;
6834;SDS011;3455;42.150;24.734;2022-11-15T05:48:00;30.90;;;20.83;;
6834;SDS011;3455;42.150;24.734;2022-11-15T05:53:53;30.87;;;21.70;;
6834;SDS011;3455;42.150;24.734;2022-11-15T05:56:23;33.40;;;21.23;;
6834;SDS011;3455;42.150;24.734;2022-11-15T06:05:47;31.93;;;18.50;;
6834;SDS011;3455;42.150;24.734;2022-11-15T06:08:13;25.50;;;18.00;;
6834;SDS011;3455;42.150;24.734;2022-11-15T06:14:03;31.03;;;19.17;;
6834;SDS011;3455;42.150;24.734;2022-11-15T06:16:30;27.00;;;18.13;;
6834;SDS011;3455;42.150;24.734;2022-11-15T06:18:57;27.90;;;19.90;;
6834;SDS011;3455;42.150;24.734;2022-11-15T06:21:24;22.07;;;17.97;;
6834;SDS011;3455;42.150;24.734;2022-11-15T06:23:52;26.80;;;17.53;;
6834;SDS011;3455;42.150;24.734;2022-11-15T06:26:19;27.73;;;18.17;;
6834;SDS011;3455;42.150;24.734;2022-11-15T06:28:46;19.77;;;16.77;;
6834;SDS011;3455;42.150;24.734;2022-11-15T06:31:14;26.23;;;16.90;;
6834;SDS011;3455;42.150;24.734;2022-11-15T06:37:02;25.37;;;17.90;;
6834;SDS011;3455;42.150;24.734;2022-11-15T06:39:29;26.27;;;17.07;;
6834;SDS011;3455;42.150;24.734;2022-11-15T06:41:56;25.73;;;17.30;;
6834;SDS011;3455;42.150;24.734;2022-11-15T06:44:22;27.97;;;18.73;;
6834;SDS011;3455;42.150;24.734;2022-11-15T06:46:50;22.70;;;16.17;;
6834;SDS011;3455;42.150;24.734;2022-11-15T06:49:17;18.97;;;15.97;;
6834;SDS011;3455;42.150;24.734;2022-11-15T06:51:44;23.83;;;16.20;;
6834;SDS011;3455;42.150;24.734;2022-11-15T06:54:11;17.83;;;15.57;;
6834;SDS011;3455;42.150;24.734;2022-11-15T06:56:37;18.53;;;14.33;;
6834;SDS011;3455;42.150;24.734;2022-11-15T06:59:05;20.30;;;15.33;;
6834;SDS011;3455;42.150;24.734;2022-11-15T07:01:32;24.70;;;17.30;;
6834;SDS011;3455;42.150;24.734;2022-11-15T07:04:00;20.57;;;15.23;;
6834;SDS011;3455;42.150;24.734;2022-11-15T07:06:26;17.70;;;14.10;;
6834;SDS011;3455;42.150;24.734;2022-11-15T07:08:53;20.47;;;14.60;;
6834;SDS011;3455;42.150;24.734;2022-11-15T07:11:20;23.97;;;15.63;;
6834;SDS011;3455;42.150;24.734;2022-11-15T07:13:46;17.80;;;14.70;;
6834;SDS011;3455;42.150;24.734;2022-11-15T07:16:13;20.07;;;15.93;;
6834;SDS011;3455;42.150;24.734;2022-11-15T07:18:40;24.93;;;15.57;;
6834;SDS011;3455;42.150;24.734;2022-11-15T07:21:09;18.07;;;15.37;;
6834;SDS011;3455;42.150;24.734;2022-11-15T07:23:37;16.70;;;14.77;;
6834;SDS011;3455;42.150;24.734;2022-11-15T07:26:04;17.17;;;15.13;;
6834;SDS011;3455;42.150;24.734;2022-11-15T07:28:32;17.10;;;15.40;;
6834;SDS011;3455;42.150;24.734;2022-11-15T07:31:01;17.47;;;14.80;;
6834;SDS011;3455;42.150;24.734;2022-11-15T07:33:28;26.17;;;17.40;;
6834;SDS011;3455;42.150;24.734;2022-11-15T07:35:58;21.57;;;16.53;;
6834;SDS011;3455;42.150;24.734;2022-11-15T07:38:27;29.10;;;17.00;;
6834;SDS011;3455;42.150;24.734;2022-11-15T07:40:58;20.77;;;16.33;;
6834;SDS011;3455;42.150;24.734;2022-11-15T07:43:26;19.67;;;15.30;;
6834;SDS011;3455;42.150;24.734;2022-11-15T07:45:54;17.63;;;15.73;;
6834;SDS011;3455;42.150;24.734;2022-11-15T07:48:22;18.00;;;16.27;;
6834;SDS011;3455;42.150;24.734;2022-11-15T07:50:49;17.43;;;15.80;;
6834;SDS011;3455;42.150;24.734;2022-11-15T07:53:15;17.47;;;14.87;;
6834;SDS011;3455;42.150;24.734;2022-11-15T07:55:43;19.27;;;15.37;;
6834;SDS011;3455;42.150;24.734;2022-11-15T07:58:10;17.63;;;15.60;;
6834;SDS011;3455;42.150;24.734;2022-11-15T08:10:37;17.10;;;15.35;;
6834;SDS011;3455;42.150;24.734;2022-11-15T08:13:06;17.00;;;15.25;;
6834;SDS011;3455;42.150;24.734;2022-11-15T08:15:34;18.02;;;15.55;;
6834;SDS011;3455;42.150;24.734;2022-11-15T08:18:02;21.52;;;17.08;;
6834;SDS011;3455;42.150;24.734;2022-11-15T08:20:30;17.88;;;16.00;;
6834;SDS011;3455;42.150;24.734;2022-11-15T08:23:00;20.13;;;15.80;;
6834;SDS011;3455;42.150;24.734;2022-11-15T08:25:28;21.55;;;17.30;;
6834;SDS011;3455;42.150;24.734;2022-11-15T08:27:57;20.05;;;16.75;;
6834;SDS011;3455;42.150;24.734;2022-11-15T08:30:27;24.05;;;17.23;;
6834;SDS011;3455;42.150;24.734;2022-11-15T08:36:16;18.25;;;15.00;;
6834;SDS011;3455;42.150;24.734;2022-11-15T08:42:04;17.15;;;15.45;;
6834;SDS011;3455;42.150;24.734;2022-11-15T08:44:31;18.05;;;16.45;;
6834;SDS011;3455;42.150;24.734;2022-11-15T08:50:21;20.02;;;17.52;;
6834;SDS011;3455;42.150;24.734;2022-11-15T08:52:47;17.92;;;16.35;;
6834;SDS011;3455;42.150;24.734;2022-11-15T08:58:43;20.50;;;18.67;;
6834;SDS011;3455;42.150;24.734;2022-11-15T09:01:14;19.38;;;17.77;;
6834;SDS011;3455;42.150;24.734;2022-11-15T09:03:42;20.42;;;18.52;;
6834;SDS011;3455;42.150;24.734;2022-11-15T09:06:10;21.48;;;19.30;;
6834;SDS011;3455;42.150;24.734;2022-11-15T09:08:38;21.08;;;19.40;;
6834;SDS011;3455;42.150;24.734;2022-11-15T09:11:05;21.42;;;19.48;;
6834;SDS011;3455;42.150;24.734;2022-11-15T09:13:33;18.83;;;17.23;;
6834;SDS011;3455;42.150;24.734;2022-11-15T09:16:02;20.83;;;19.10;;
6834;SDS011;3455;42.150;24.734;2022-11-15T09:18:29;21.95;;;19.70;;
6834;SDS011;3455;42.150;24.734;2022-11-15T09:20:56;20.15;;;18.33;;
6834;SDS011;3455;42.150;24.734;2022-11-15T09:23:25;21.10;;;19.15;;
6834;SDS011;3455;42.150;24.734;2022-11-15T09:25:52;21.63;;;19.63;;
6834;SDS011;3455;42.150;24.734;2022-11-15T09:28:25;21.50;;;19.45;;
6834;SDS011;3455;42.150;24.734;2022-11-15T09:30:55;22.20;;;20.02;;
6834;SDS011;3455;42.150;24.734;2022-11-15T09:33:22;21.45;;;19.45;;
6834;SDS011;3455;42.150;24.734;2022-11-15T09:35:49;21.98;;;19.88;;
6834;SDS011;3455;42.150;24.734;2022-11-15T09:38:15;20.95;;;19.05;;
6834;SDS011;3455;42.150;24.734;2022-11-15T09:40:44;21.25;;;19.38;;
6834;SDS011;3455;42.150;24.734;2022-11-15T09:43:24;22.80;;;20.60;;
6834;SDS011;3455;42.150;24.734;2022-11-15T09:45:57;24.13;;;20.75;;
6834;SDS011;3455;42.150;24.734;2022-11-15T09:48:38;22.15;;;20.10;;
6834;SDS011;3455;42.150;24.734;2022-11-15T09:51:18;23.27;;;21.08;;
6834;SDS011;3455;42.150;24.734;2022-11-15T09:53:51;22.40;;;20.45;;
6834;SDS011;3455;42.150;24.734;2022-11-15T09:56:26;23.85;;;21.58;;
6834;SDS011;3455;42.150;24.734;2022-11-15T09:58:58;31.85;;;21.60;;
6834;SDS011;3455;42.150;24.734;2022-11-15T10:01:37;24.08;;;21.70;;
6834;SDS011;3455;42.150;24.734;2022-11-15T10:04:10;22.42;;;20.23;;
6834;SDS011;3455;42.150;24.734;2022-11-15T10:06:38;23.25;;;21.05;;
6834;SDS011;3455;42.150;24.734;2022-11-15T10:09:12;23.30;;;20.33;;
6834;SDS011;3455;42.150;24.734;2022-11-15T10:11:43;24.33;;;21.83;;
6834;SDS011;3455;42.150;24.734;2022-11-15T10:14:11;23.10;;;20.98;;
6834;SDS011;3455;42.150;24.734;2022-11-15T10:19:58;25.02;;;22.55;;
6834;SDS011;3455;42.150;24.734;2022-11-15T10:22:35;23.98;;;21.25;;
6834;SDS011;3455;42.150;24.734;2022-11-15T10:28:41;25.77;;;23.20;;
6834;SDS011;3455;42.150;24.734;2022-11-15T10:34:26;24.70;;;22.42;;
6834;SDS011;3455;42.150;24.734;2022-11-15T10:36:55;23.45;;;21.05;;
6834;SDS011;3455;42.150;24.734;2022-11-15T10:39:23;37.85;;;23.02;;
6834;SDS011;3455;42.150;24.734;2022-11-15T10:41:51;22.20;;;19.55;;
6834;SDS011;3455;42.150;24.734;2022-11-15T10:44:23;21.88;;;19.58;;
6834;SDS011;3455;42.150;24.734;2022-11-15T10:50:00;54.85;;;35.90;;
6834;SDS011;3455;42.150;24.734;2022-11-15T10:52:29;36.10;;;27.10;;
6834;SDS011;3455;42.150;24.734;2022-11-15T10:54:59;24.77;;;22.17;;
6834;SDS011;3455;42.150;24.734;2022-11-15T10:57:30;23.50;;;21.25;;
6834;SDS011;3455;42.150;24.734;2022-11-15T11:00:03;25.10;;;22.50;;
6834;SDS011;3455;42.150;24.734;2022-11-15T11:08:56;25.42;;;19.70;;
6834;SDS011;3455;42.150;24.734;2022-11-15T11:11:24;21.92;;;20.00;;
6834;SDS011;3455;42.150;24.734;2022-11-15T11:13:51;26.38;;;22.67;;
6834;SDS011;3455;42.150;24.734;2022-11-15T11:16:26;22.27;;;20.15;;
6834;SDS011;3455;42.150;24.734;2022-11-15T11:19:10;22.83;;;20.63;;
6834;SDS011;3455;42.150;24.734;2022-11-15T11:21:46;23.02;;;20.80;;
6834;SDS011;3455;42.150;24.734;2022-11-15T11:24:22;25.30;;;22.30;;
6834;SDS011;3455;42.150;24.734;2022-11-15T11:30:18;21.88;;;19.92;;
6834;SDS011;3455;42.150;24.734;2022-11-15T11:32:54;22.60;;;20.58;;
6834;SDS011;3455;42.150;24.734;2022-11-15T11:35:39;23.30;;;21.13;;
6834;SDS011;3455;42.150;24.734;2022-11-15T11:38:23;24.42;;;21.85;;
6834;SDS011;3455;42.150;24.734;2022-11-15T11:41:09;32.65;;;25.02;;
6834;SDS011;3455;42.150;24.734;2022-11-15T11:43:43;24.02;;;21.67;;
6834;SDS011;3455;42.150;24.734;2022-11-15T11:46:35;24.17;;;21.77;;
6834;SDS011;3455;42.150;24.734;2022-11-15T11:49:15;28.27;;;23.17;;
6834;SDS011;3455;42.150;24.734;2022-11-15T11:51:47;25.70;;;23.10;;
6834;SDS011;3455;42.150;24.734;2022-11-15T11:54:19;25.13;;;20.88;;
6834;SDS011;3455;42.150;24.734;2022-11-15T11:56:49;23.80;;;21.30;;
6834;SDS011;3455;42.150;24.734;2022-11-15T11:59:19;25.17;;;22.48;;
6834;SDS011;3455;42.150;24.734;2022-11-15T12:01:52;26.55;;;23.38;;
6834;SDS011;3455;42.150;24.734;2022-11-15T12:04:21;25.27;;;22.58;;
6834;SDS011;3455;42.150;24.734;2022-11-15T12:06:57;26.63;;;23.58;;
6834;SDS011;3455;42.150;24.734;2022-11-15T12:09:30;27.05;;;21.98;;
6834;SDS011;3455;42.150;24.734;2022-11-15T12:12:04;24.55;;;22.13;;
6834;SDS011;3455;42.150;24.734;2022-11-15T12:14:36;26.83;;;23.55;;
6834;SDS011;3455;42.150;24.734;2022-11-15T12:17:09;26.23;;;23.52;;
6834;SDS011;3455;42.150;24.734;2022-11-15T12:19:38;25.52;;;22.80;;
6834;SDS011;3455;42.150;24.734;2022-11-15T12:25:27;25.17;;;22.63;;
6834;SDS011;3455;42.150;24.734;2022-11-15T12:27:59;25.42;;;22.40;;
6834;SDS011;3455;42.150;24.734;2022-11-15T12:30:39;23.60;;;21.48;;
6834;SDS011;3455;42.150;24.734;2022-11-15T12:35:58;25.58;;;23.08;;
6834;SDS011;3455;42.150;24.734;2022-11-15T12:55:30;24.30;;;21.90;;
6834;SDS011;3455;42.150;24.734;2022-11-15T13:04:25;23.70;;;21.20;;
6834;SDS011;3455;42.150;24.734;2022-11-15T13:10:30;23.95;;;21.63;;
6834;SDS011;3455;42.150;24.734;2022-11-15T13:12:59;24.05;;;21.52;;
6834;SDS011;3455;42.150;24.734;2022-11-15T13:15:35;25.10;;;22.42;;
6834;SDS011;3455;42.150;24.734;2022-11-15T13:21:00;24.83;;;22.23;;
6834;SDS011;3455;42.150;24.734;2022-11-15T13:27:09;25.50;;;22.83;;
6834;SDS011;3455;42.150;24.734;2022-11-15T13:29:42;28.33;;;21.27;;
6834;SDS011;3455;42.150;24.734;2022-11-15T13:32:10;26.13;;;22.90;;
6834;SDS011;3455;42.150;24.734;2022-11-15T13:34:39;30.27;;;22.17;;
6834;SDS011;3455;42.150;24.734;2022-11-15T13:40:00;28.00;;;21.93;;
6834;SDS011;3455;42.150;24.734;2022-11-15T13:42:43;30.03;;;21.93;;
6834;SDS011;3455;42.150;24.734;2022-11-15T13:51:53;28.77;;;23.27;;
6834;SDS011;3455;42.150;24.734;2022-11-15T13:54:36;29.47;;;24.53;;
6834;SDS011;3455;42.150;24.734;2022-11-15T13:57:10;32.00;;;24.93;;
6834;SDS011;3455;42.150;24.734;2022-11-15T14:02:56;37.63;;;25.77;;
6834;SDS011;3455;42.150;24.734;2022-11-15T14:05:30;33.43;;;27.23;;
6834;SDS011;3455;42.150;24.734;2022-11-15T14:07:57;33.00;;;25.97;;
6834;SDS011;3455;42.150;24.734;2022-11-15T14:10:27;31.07;;;26.00;;
6834;SDS011;3455;42.150;24.734;2022-11-15T14:12:56;31.63;;;25.67;;
6834;SDS011;3455;42.150;24.734;2022-11-15T14:21:11;35.70;;;25.60;;
6834;SDS011;3455;42.150;24.734;2022-11-15T14:23:37;41.40;;;27.23;;
6834;SDS011;3455;42.150;24.734;2022-11-15T14:26:04;35.50;;;26.97;;
6834;SDS011;3455;42.150;24.734;2022-11-15T14:28:31;37.97;;;27.57;;
6834;SDS011;3455;42.150;24.734;2022-11-15T14:31:06;33.77;;;27.80;;
6834;SDS011;3455;42.150;24.734;2022-11-15T14:33:38;34.50;;;26.93;;
6834;SDS011;3455;42.150;24.734;2022-11-15T14:36:11;42.50;;;27.07;;
6834;SDS011;3455;42.150;24.734;2022-11-15T14:38:39;39.83;;;28.37;;
6834;SDS011;3455;42.150;24.734;2022-11-15T14:41:08;36.10;;;27.47;;
6834;SDS011;3455;42.150;24.734;2022-11-15T14:43:43;33.23;;;26.33;;
6834;SDS011;3455;42.150;24.734;2022-11-15T14:46:09;35.30;;;28.00;;
6834;SDS011;3455;42.150;24.734;2022-11-15T14:48:36;35.47;;;27.40;;
6834;SDS011;3455;42.150;24.734;2022-11-15T14:51:03;35.83;;;27.17;;
6834;SDS011;3455;42.150;24.734;2022-11-15T14:53:40;40.17;;;28.20;;
6834;SDS011;3455;42.150;24.734;2022-11-15T14:56:07;54.33;;;29.33;;
6834;SDS011;3455;42.150;24.734;2022-11-15T15:01:56;51.63;;;36.03;;
6834;SDS011;3455;42.150;24.734;2022-11-15T15:07:39;57.57;;;34.13;;
6834;SDS011;3455;42.150;24.734;2022-11-15T15:10:06;51.80;;;33.57;;
6834;SDS011;3455;42.150;24.734;2022-11-15T15:12:34;48.83;;;33.53;;
6834;SDS011;3455;42.150;24.734;2022-11-15T15:15:01;44.63;;;32.83;;
6834;SDS011;3455;42.150;24.734;2022-11-15T15:17:27;51.00;;;34.47;;
6834;SDS011;3455;42.150;24.734;2022-11-15T15:19:54;49.53;;;34.13;;
6834;SDS011;3455;42.150;24.734;2022-11-15T15:22:21;60.20;;;43.40;;
6834;SDS011;3455;42.150;24.734;2022-11-15T15:24:51;45.50;;;31.00;;
6834;SDS011;3455;42.150;24.734;2022-11-15T15:27:18;50.47;;;32.87;;
6834;SDS011;3455;42.150;24.734;2022-11-15T15:29:45;47.50;;;32.77;;
6834;SDS011;3455;42.150;24.734;2022-11-15T15:32:11;54.40;;;32.60;;
6834;SDS011;3455;42.150;24.734;2022-11-15T15:34:39;52.47;;;33.97;;
6834;SDS011;3455;42.150;24.734;2022-11-15T15:37:06;53.80;;;32.70;;
6834;SDS011;3455;42.150;24.734;2022-11-15T15:39:47;50.30;;;32.10;;
6834;SDS011;3455;42.150;24.734;2022-11-15T15:42:15;50.43;;;34.17;;
6834;SDS011;3455;42.150;24.734;2022-11-15T15:44:42;51.90;;;34.27;;
6834;SDS011;3455;42.150;24.734;2022-11-15T15:47:10;50.57;;;33.73;;
6834;SDS011;3455;42.150;24.734;2022-11-15T15:49:38;50.70;;;32.50;;
6834;SDS011;3455;42.150;24.734;2022-11-15T15:52:05;55.53;;;33.30;;
6834;SDS011;3455;42.150;24.734;2022-11-15T15:54:31;58.50;;;36.30;;
6834;SDS011;3455;42.150;24.734;2022-11-15T15:56:58;49.10;;;34.30;;
6834;SDS011;3455;42.150;24.734;2022-11-15T15:59:26;54.67;;;34.00;;
6834;SDS011;3455;42.150;24.734;2022-11-15T16:01:53;47.47;;;33.10;;
6834;SDS011;3455;42.150;24.734;2022-11-15T16:04:20;54.57;;;36.07;;
6834;SDS011;3455;42.150;24.734;2022-11-15T16:06:46;56.93;;;35.67;;
6834;SDS011;3455;42.150;24.734;2022-11-15T16:09:15;58.07;;;35.67;;
6834;SDS011;3455;42.150;24.734;2022-11-15T16:11:44;55.97;;;34.43;;
6834;SDS011;3455;42.150;24.734;2022-11-15T16:14:12;61.83;;;38.70;;
6834;SDS011;3455;42.150;24.734;2022-11-15T16:16:40;146.63;;;89.97;;
6834;SDS011;3455;42.150;24.734;2022-11-15T16:19:07;62.23;;;37.93;;
6834;SDS011;3455;42.150;24.734;2022-11-15T16:21:37;60.30;;;37.63;;
6834;SDS011;3455;42.150;24.734;2022-11-15T16:24:04;62.93;;;38.33;;
6834;SDS011;3455;42.150;24.734;2022-11-15T16:26:30;53.77;;;36.50;;
6834;SDS011;3455;42.150;24.734;2022-11-15T16:29:01;58.37;;;37.37;;
6834;SDS011;3455;42.150;24.734;2022-11-15T16:31:50;68.50;;;36.90;;
6834;SDS011;3455;42.150;24.734;2022-11-15T16:34:17;51.80;;;34.87;;
6834;SDS011;3455;42.150;24.734;2022-11-15T16:36:44;56.43;;;36.27;;
6834;SDS011;3455;42.150;24.734;2022-11-15T16:39:11;56.20;;;35.63;;
6834;SDS011;3455;42.150;24.734;2022-11-15T16:41:40;65.23;;;36.87;;
6834;SDS011;3455;42.150;24.734;2022-11-15T16:44:08;50.70;;;34.67;;
6834;SDS011;3455;42.150;24.734;2022-11-15T16:46:42;52.97;;;35.80;;
6834;SDS011;3455;42.150;24.734;2022-11-15T16:49:38;68.17;;;40.97;;
6834;SDS011;3455;42.150;24.734;2022-11-15T16:52:15;57.83;;;36.93;;
6834;SDS011;3455;42.150;24.734;2022-11-15T16:54:43;57.80;;;37.00;;
6834;SDS011;3455;42.150;24.734;2022-11-15T16:57:11;58.90;;;36.70;;
6834;SDS011;3455;42.150;24.734;2022-11-15T16:59:37;60.47;;;37.10;;
6834;SDS011;3455;42.150;24.734;2022-11-15T17:02:07;54.73;;;36.40;;
6834;SDS011;3455;42.150;24.734;2022-11-15T17:04:38;61.93;;;38.30;;
6834;SDS011;3455;42.150;24.734;2022-11-15T17:07:05;56.73;;;37.60;;
6834;SDS011;3455;42.150;24.734;2022-11-15T17:09:32;57.80;;;38.17;;
6834;SDS011;3455;42.150;24.734;2022-11-15T17:11:59;71.90;;;41.90;;
6834;SDS011;3455;42.150;24.734;2022-11-15T17:14:26;65.27;;;39.63;;
6834;SDS011;3455;42.150;24.734;2022-11-15T17:16:52;67.03;;;39.83;;
6834;SDS011;3455;42.150;24.734;2022-11-15T17:19:20;70.03;;;39.70;;
6834;SDS011;3455;42.150;24.734;2022-11-15T17:21:48;60.17;;;39.50;;
6834;SDS011;3455;42.150;24.734;2022-11-15T17:24:15;66.70;;;39.63;;
6834;SDS011;3455;42.150;24.734;2022-11-15T17:26:44;80.10;;;41.87;;
6834;SDS011;3455;42.150;24.734;2022-11-15T17:29:11;75.30;;;41.97;;
6834;SDS011;3455;42.150;24.734;2022-11-15T17:31:38;67.57;;;42.03;;
6834;SDS011;3455;42.150;24.734;2022-11-15T17:34:05;86.00;;;49.17;;
6834;SDS011;3455;42.150;24.734;2022-11-15T17:36:32;77.07;;;44.07;;
6834;SDS011;3455;42.150;24.734;2022-11-15T17:39:01;70.60;;;43.50;;
6834;SDS011;3455;42.150;24.734;2022-11-15T17:41:28;73.07;;;44.20;;
6834;SDS011;3455;42.150;24.734;2022-11-15T17:43:55;77.90;;;50.33;;
6834;SDS011;3455;42.150;24.734;2022-11-15T17:46:23;77.00;;;44.73;;
6834;SDS011;3455;42.150;24.734;2022-11-15T17:48:51;70.63;;;43.07;;
6834;SDS011;3455;42.150;24.734;2022-11-15T17:51:18;83.23;;;45.07;;
6834;SDS011;3455;42.150;24.734;2022-11-15T17:53:46;70.57;;;42.53;;
6834;SDS011;3455;42.150;24.734;2022-11-15T17:59:37;76.00;;;44.97;;
6834;SDS011;3455;42.150;24.734;2022-11-15T18:05:26;74.03;;;42.50;;
6834;SDS011;3455;42.150;24.734;2022-11-15T18:07:52;73.63;;;43.03;;
6834;SDS011;3455;42.150;24.734;2022-11-15T18:10:19;78.97;;;43.23;;
6834;SDS011;3455;42.150;24.734;2022-11-15T18:12:46;79.97;;;45.53;;
6834;SDS011;3455;42.150;24.734;2022-11-15T18:15:14;77.67;;;44.37;;
6834;SDS011;3455;42.150;24.734;2022-11-15T18:17:43;87.17;;;43.53;;
6834;SDS011;3455;42.150;24.734;2022-11-15T18:20:10;77.73;;;43.83;;
6834;SDS011;3455;42.150;24.734;2022-11-15T18:22:37;94.47;;;46.57;;
6834;SDS011;3455;42.150;24.734;2022-11-15T18:25:04;98.07;;;46.13;;
6834;SDS011;3455;42.150;24.734;2022-11-15T18:27:32;83.90;;;46.63;;